createdAt,value
2022-12-18T00:00:03.375Z,82.98
2022-12-18T00:01:03.362Z,82.98
2022-12-18T00:02:03.434Z,82.98
2022-12-18T00:03:03.444Z,82.98
2022-12-18T00:04:03.509Z,82.98
2022-12-18T00:05:03.313Z,82.98
2022-12-18T00:06:03.315Z,82.87
2022-12-18T00:07:03.301Z,82.87
2022-12-18T00:08:03.280Z,82.87
2022-12-18T00:09:04.263Z,82.87
2022-12-18T00:10:03.252Z,82.87
2022-12-18T00:11:03.248Z,82.87
2022-12-18T00:13:08.241Z,82.87
2022-12-18T00:14:04.209Z,82.87
2022-12-18T00:15:03.219Z,82.76
2022-12-18T00:16:03.206Z,82.76
2022-12-18T00:17:03.181Z,82.76
2022-12-18T00:18:03.164Z,82.76
2022-12-18T00:19:03.183Z,82.76
2022-12-18T00:20:03.126Z,82.76
2022-12-18T00:21:03.110Z,82.65
2022-12-18T00:22:03.116Z,82.65
2022-12-18T00:23:03.089Z,82.69
2022-12-18T00:24:03.085Z,82.69
2022-12-18T00:25:03.070Z,82.69
2022-12-18T00:26:03.057Z,82.69
2022-12-18T00:27:03.055Z,82.69
2022-12-18T00:28:03.026Z,82.59
2022-12-18T00:29:03.005Z,82.59
2022-12-18T00:30:03.004Z,82.59
2022-12-18T00:31:03.050Z,82.59
2022-12-18T00:32:03.040Z,82.69
2022-12-18T00:33:02.964Z,82.69
2022-12-18T00:34:02.965Z,82.69
2022-12-18T00:35:02.935Z,82.69
2022-12-18T00:36:02.935Z,82.80
2022-12-18T00:37:02.926Z,82.80
2022-12-18T00:38:02.902Z,82.69
2022-12-18T00:39:02.892Z,82.69
2022-12-18T00:40:02.881Z,82.69
2022-12-18T00:41:02.861Z,82.69
2022-12-18T00:42:02.870Z,82.69
2022-12-18T00:43:02.839Z,82.84
2022-12-18T00:44:02.829Z,82.84
2022-12-18T00:45:06.394Z,82.84
2022-12-18T00:46:03.876Z,82.84
2022-12-18T00:47:02.808Z,82.84
2022-12-18T00:48:02.811Z,82.84
2022-12-18T00:49:02.766Z,82.84
2022-12-18T00:50:02.757Z,82.84
2022-12-18T00:51:02.745Z,82.84
2022-12-18T00:52:02.755Z,82.84
2022-12-18T00:53:02.716Z,82.84
2022-12-18T00:54:02.707Z,82.84
2022-12-18T00:55:06.242Z,82.73
2022-12-18T00:56:02.688Z,82.73
2022-12-18T00:57:02.687Z,82.73
2022-12-18T00:58:02.666Z,82.84
2022-12-18T00:59:02.636Z,82.84
2022-12-18T01:00:02.636Z,82.84
2022-12-18T01:01:02.682Z,82.84
2022-12-18T01:02:02.697Z,82.84
2022-12-18T01:03:02.632Z,82.73
2022-12-18T01:04:02.582Z,82.73
2022-12-18T01:05:02.565Z,82.73
2022-12-18T01:06:02.568Z,82.73
2022-12-18T01:07:02.553Z,82.73
2022-12-18T01:08:02.535Z,82.62
2022-12-18T01:09:02.514Z,82.62
2022-12-18T01:10:02.515Z,82.62
2022-12-18T01:11:02.498Z,82.73
2022-12-18T01:12:02.506Z,82.62
2022-12-18T01:13:02.471Z,82.62
2022-12-18T01:14:02.460Z,82.62
2022-12-18T01:15:02.451Z,82.62
2022-12-18T01:16:02.492Z,82.62
2022-12-18T01:17:02.430Z,82.62
2022-12-18T01:18:02.422Z,82.66
2022-12-18T01:19:02.408Z,82.66
2022-12-18T01:20:02.391Z,82.56
2022-12-18T01:21:02.376Z,82.56
2022-12-18T01:22:02.390Z,82.56
2022-12-18T01:23:02.346Z,82.45
2022-12-18T01:24:02.358Z,82.45
2022-12-18T01:25:02.329Z,82.45
2022-12-18T01:26:02.315Z,82.45
2022-12-18T01:27:02.314Z,82.45
2022-12-18T01:28:02.294Z,82.45
2022-12-18T01:29:02.274Z,82.45
2022-12-18T01:30:02.264Z,82.45
2022-12-18T01:31:02.257Z,82.56
2022-12-18T01:32:02.286Z,82.45
2022-12-18T01:33:02.234Z,82.45
2022-12-18T01:34:02.212Z,82.45
2022-12-18T01:35:02.202Z,82.45
2022-12-18T01:36:02.191Z,82.45
2022-12-18T01:37:02.174Z,82.56
2022-12-18T01:38:02.188Z,82.56
2022-12-18T01:39:02.149Z,82.45
2022-12-18T01:40:02.143Z,82.45
2022-12-18T01:41:02.126Z,82.45
2022-12-18T01:42:02.114Z,82.45
2022-12-18T01:43:02.122Z,82.34
2022-12-18T01:44:02.088Z,82.38
2022-12-18T01:45:02.084Z,82.38
2022-12-18T01:46:02.129Z,82.38
2022-12-18T01:47:02.058Z,82.38
2022-12-18T01:48:02.061Z,82.38
2022-12-18T01:49:02.034Z,82.38
2022-12-18T01:50:02.016Z,82.48
2022-12-18T01:51:02.008Z,82.48
2022-12-18T01:52:01.989Z,82.59
2022-12-18T01:53:02.006Z,82.59
2022-12-18T01:54:01.972Z,82.59
2022-12-18T01:55:01.965Z,82.81
2022-12-18T01:56:01.936Z,82.81
2022-12-18T01:57:01.938Z,82.91
2022-12-18T01:58:01.934Z,82.91
2022-12-18T01:59:01.914Z,83.02
2022-12-18T02:00:01.901Z,83.02
2022-12-18T02:01:01.938Z,83.02
2022-12-18T02:02:02.043Z,83.02
2022-12-18T02:03:02.043Z,83.02
2022-12-18T02:04:01.845Z,83.02
2022-12-18T02:05:01.839Z,83.02
2022-12-18T02:06:01.834Z,83.02
2022-12-18T02:07:01.812Z,83.02
2022-12-18T02:08:01.815Z,83.06
2022-12-18T02:09:01.804Z,83.02
2022-12-18T02:10:01.771Z,83.02
2022-12-18T02:11:01.768Z,83.06
2022-12-18T02:12:01.749Z,83.02
2022-12-18T02:13:01.749Z,82.95
2022-12-18T02:14:01.732Z,82.95
2022-12-18T02:15:01.717Z,82.91
2022-12-18T02:16:01.696Z,82.95
2022-12-18T02:17:01.730Z,82.95
2022-12-18T02:18:01.690Z,82.95
2022-12-18T02:19:01.666Z,82.84
2022-12-18T02:20:01.725Z,82.84
2022-12-18T02:21:01.646Z,82.84
2022-12-18T02:22:01.626Z,82.84
2022-12-18T02:23:01.636Z,82.84
2022-12-18T02:24:01.603Z,82.84
2022-12-18T02:25:01.603Z,82.84
2022-12-18T02:26:01.575Z,82.84
2022-12-18T02:27:01.566Z,82.84
2022-12-18T02:28:01.572Z,82.84
2022-12-18T02:29:01.547Z,82.84
2022-12-18T02:30:01.538Z,82.84
2022-12-18T02:31:01.609Z,82.84
2022-12-18T02:32:01.509Z,82.84
2022-12-18T02:33:01.514Z,82.84
2022-12-18T02:34:01.481Z,82.84
2022-12-18T02:35:01.471Z,82.84
2022-12-18T02:36:01.466Z,82.84
2022-12-18T02:37:01.452Z,82.84
2022-12-18T02:38:01.461Z,82.84
2022-12-18T02:39:01.423Z,82.84
2022-12-18T02:40:01.411Z,82.84
2022-12-18T02:41:01.399Z,82.84
2022-12-18T02:42:01.380Z,82.84
2022-12-18T02:43:01.391Z,82.84
2022-12-18T02:44:01.357Z,82.84
2022-12-18T02:45:01.348Z,82.84
2022-12-18T02:46:01.368Z,82.84
2022-12-18T02:47:01.327Z,82.84
2022-12-18T02:48:01.331Z,82.84
2022-12-18T02:49:01.310Z,82.84
2022-12-18T02:50:01.299Z,82.88
2022-12-18T02:51:01.284Z,82.88
2022-12-18T02:52:01.268Z,82.88
2022-12-18T02:53:01.279Z,82.88
2022-12-18T02:54:01.234Z,82.88
2022-12-18T02:55:01.225Z,82.98
2022-12-18T02:56:01.214Z,82.98
2022-12-18T02:57:01.215Z,82.98
2022-12-18T02:58:01.204Z,82.98
2022-12-18T02:59:01.201Z,82.98
2022-12-18T03:00:01.163Z,82.98
2022-12-18T03:01:01.226Z,82.98
2022-12-18T03:02:01.336Z,82.98
2022-12-18T03:03:01.208Z,82.98
2022-12-18T03:04:01.123Z,82.88
2022-12-18T03:05:01.110Z,82.88
2022-12-18T03:06:01.093Z,82.88
2022-12-18T03:07:01.089Z,82.88
2022-12-18T03:08:01.091Z,82.88
2022-12-18T03:09:01.068Z,82.88
2022-12-18T03:10:01.049Z,82.88
2022-12-18T03:11:01.040Z,82.88
2022-12-18T03:12:01.027Z,82.88
2022-12-18T03:13:01.027Z,82.88
2022-12-18T03:14:00.998Z,82.88
2022-12-18T03:15:00.987Z,82.88
2022-12-18T03:16:00.978Z,82.88
2022-12-18T03:17:01.026Z,82.88
2022-12-18T03:18:00.969Z,82.88
2022-12-18T03:19:00.944Z,82.88
2022-12-18T03:20:00.929Z,82.88
2022-12-18T03:21:00.915Z,82.88
2022-12-18T03:22:00.906Z,82.98
2022-12-18T03:23:00.907Z,82.98
2022-12-18T03:24:00.885Z,82.98
2022-12-18T03:25:00.865Z,82.98
2022-12-18T03:26:05.884Z,83.09
2022-12-18T03:27:01.844Z,83.09
2022-12-18T03:28:00.844Z,83.09
2022-12-18T03:29:00.823Z,83.09
2022-12-18T03:30:00.864Z,82.98
2022-12-18T03:31:00.851Z,82.98
2022-12-18T03:32:00.787Z,82.98
2022-12-18T03:33:00.791Z,82.98
2022-12-18T03:34:00.766Z,82.98
2022-12-18T03:35:00.761Z,82.98
2022-12-18T03:36:00.732Z,82.98
2022-12-18T03:37:00.733Z,83.02
2022-12-18T03:38:00.727Z,82.98
2022-12-18T03:39:00.713Z,83.02
2022-12-18T03:40:00.698Z,82.92
2022-12-18T03:41:00.680Z,82.92
2022-12-18T03:42:00.669Z,83.02
2022-12-18T03:43:00.669Z,83.02
2022-12-18T03:44:00.639Z,83.02
2022-12-18T03:45:00.638Z,83.02
2022-12-18T03:46:00.664Z,83.02
2022-12-18T03:47:00.607Z,83.02
2022-12-18T03:48:00.606Z,83.02
2022-12-18T03:49:00.587Z,83.02
2022-12-18T03:50:00.575Z,83.02
2022-12-18T03:51:00.568Z,83.02
2022-12-18T03:52:00.545Z,83.02
2022-12-18T03:53:00.555Z,83.02
2022-12-18T03:54:00.527Z,83.02
2022-12-18T03:55:00.526Z,83.02
2022-12-18T03:56:00.504Z,82.92
2022-12-18T03:57:00.501Z,82.92
2022-12-18T03:58:00.501Z,82.92
2022-12-18T03:59:00.463Z,82.81
2022-12-18T04:00:00.462Z,82.81
2022-12-18T04:01:00.444Z,82.70
2022-12-18T04:02:00.518Z,82.70
2022-12-18T04:03:00.446Z,82.70
2022-12-18T04:04:00.466Z,82.70
2022-12-18T04:05:00.400Z,82.70
2022-12-18T04:06:00.385Z,82.81
2022-12-18T04:07:00.378Z,82.81
2022-12-18T04:08:00.379Z,82.81
2022-12-18T04:09:00.350Z,82.70
2022-12-18T04:10:00.330Z,82.70
2022-12-18T04:11:00.328Z,82.70
2022-12-18T04:12:00.319Z,82.59
2022-12-18T04:13:00.317Z,82.59
2022-12-18T04:14:01.948Z,82.59
2022-12-18T04:15:00.277Z,82.49
2022-12-18T04:16:00.297Z,82.53
2022-12-18T04:17:00.260Z,82.49
2022-12-18T04:18:00.247Z,82.53
2022-12-18T04:19:00.245Z,82.53
2022-12-18T04:20:00.219Z,82.53
2022-12-18T04:21:00.216Z,82.53
2022-12-18T04:22:00.197Z,82.42
2022-12-18T04:23:00.187Z,82.53
2022-12-18T04:24:00.193Z,82.53
2022-12-18T04:25:00.176Z,82.53
2022-12-18T04:26:00.143Z,82.42
2022-12-18T04:27:00.141Z,82.42
2022-12-18T04:28:00.125Z,82.42
2022-12-18T04:29:00.127Z,82.42
2022-12-18T04:30:00.122Z,82.42
2022-12-18T04:31:00.182Z,82.42
2022-12-18T04:32:00.079Z,82.42
2022-12-18T04:33:00.087Z,82.31
2022-12-18T04:34:00.085Z,82.42
2022-12-18T04:35:00.040Z,82.42
2022-12-18T04:36:00.031Z,82.42
2022-12-18T04:37:00.019Z,82.42
2022-12-18T04:38:00.006Z,82.31
2022-12-18T04:39:00.010Z,82.42
2022-12-18T04:39:59.988Z,82.42
2022-12-18T04:40:59.973Z,82.42
2022-12-18T04:41:59.958Z,82.31
2022-12-18T04:42:59.992Z,82.31
2022-12-18T04:43:59.949Z,82.20
2022-12-18T04:44:59.927Z,82.24
2022-12-18T04:45:59.941Z,82.20
2022-12-18T04:46:59.912Z,82.24
2022-12-18T04:47:59.888Z,82.35
2022-12-18T04:48:59.895Z,82.31
2022-12-18T04:49:59.865Z,82.35
2022-12-18T04:50:59.855Z,82.24
2022-12-18T04:51:59.842Z,82.24
2022-12-18T04:52:59.835Z,82.24
2022-12-18T04:53:59.832Z,82.24
2022-12-18T04:54:59.806Z,82.24
2022-12-18T04:55:59.794Z,82.24
2022-12-18T04:56:59.792Z,82.24
2022-12-18T04:57:59.772Z,82.24
2022-12-18T04:58:59.775Z,82.14
2022-12-18T04:59:59.805Z,82.14
2022-12-18T05:00:59.743Z,82.14
2022-12-18T05:01:59.856Z,82.14
2022-12-18T05:02:59.783Z,82.14
2022-12-18T05:03:59.760Z,82.14
2022-12-18T05:04:59.691Z,82.28
2022-12-18T05:05:59.678Z,82.50
2022-12-18T05:06:59.670Z,82.50
2022-12-18T05:07:59.658Z,82.50
2022-12-18T05:08:59.660Z,82.60
2022-12-18T05:09:59.632Z,82.50
2022-12-18T05:10:59.628Z,82.50
2022-12-18T05:11:59.609Z,82.50
2022-12-18T05:13:00.975Z,82.50
2022-12-18T05:13:59.597Z,82.50
2022-12-18T05:14:59.575Z,82.50
2022-12-18T05:15:59.579Z,82.60
2022-12-18T05:17:01.264Z,82.81
2022-12-18T05:17:59.541Z,82.92
2022-12-18T05:18:59.543Z,83.03
2022-12-18T05:19:59.512Z,83.14
2022-12-18T05:20:59.508Z,83.14
2022-12-18T05:21:59.500Z,83.24
2022-12-18T05:22:59.498Z,83.24
2022-12-18T05:23:59.524Z,83.14
2022-12-18T05:24:59.463Z,83.14
2022-12-18T05:25:59.442Z,83.14
2022-12-18T05:26:59.449Z,83.14
2022-12-18T05:27:59.421Z,83.14
2022-12-18T05:28:59.422Z,83.14
2022-12-18T05:29:59.391Z,83.03
2022-12-18T05:30:59.445Z,83.03
2022-12-18T05:31:59.382Z,83.03
2022-12-18T05:32:59.362Z,83.03
2022-12-18T05:33:59.371Z,83.03
2022-12-18T05:34:59.382Z,83.03
2022-12-18T05:35:59.329Z,82.92
2022-12-18T05:36:59.319Z,82.92
2022-12-18T05:37:59.310Z,82.92
2022-12-18T05:38:59.312Z,82.92
2022-12-18T05:39:59.279Z,82.92
2022-12-18T05:40:59.278Z,82.92
2022-12-18T05:41:59.259Z,82.81
2022-12-18T05:42:59.248Z,82.81
2022-12-18T05:43:59.246Z,82.81
2022-12-18T05:44:59.226Z,82.81
2022-12-18T05:45:59.213Z,82.81
2022-12-18T05:46:59.309Z,82.81
2022-12-18T05:47:59.184Z,82.81
2022-12-18T05:48:59.185Z,82.81
2022-12-18T05:49:59.164Z,82.81
2022-12-18T05:50:59.158Z,82.71
2022-12-18T05:51:59.135Z,82.71
2022-12-18T05:52:59.127Z,82.71
2022-12-18T05:53:59.124Z,82.71
2022-12-18T05:54:59.117Z,82.71
2022-12-18T05:55:59.091Z,82.71
2022-12-18T05:57:10.533Z,82.60
2022-12-18T05:58:00.086Z,82.60
2022-12-18T05:58:59.063Z,82.60
2022-12-18T05:59:59.044Z,82.60
2022-12-18T06:00:59.032Z,82.60
2022-12-18T06:01:59.096Z,82.50
2022-12-18T06:02:59.071Z,82.50
2022-12-18T06:03:59.074Z,82.50
2022-12-18T06:04:58.979Z,82.50
2022-12-18T06:05:58.979Z,82.50
2022-12-18T06:06:58.968Z,82.50
2022-12-18T06:07:58.949Z,82.53
2022-12-18T06:08:58.949Z,82.53
2022-12-18T06:09:58.936Z,82.42
2022-12-18T06:10:58.909Z,82.42
2022-12-18T06:11:58.908Z,82.42
2022-12-18T06:12:58.887Z,82.42
2022-12-18T06:14:00.297Z,82.42
2022-12-18T06:14:58.868Z,82.42
2022-12-18T06:15:58.895Z,82.42
2022-12-18T06:16:58.965Z,82.42
2022-12-18T06:17:58.836Z,82.42
2022-12-18T06:18:58.847Z,82.42
2022-12-18T06:19:58.825Z,82.32
2022-12-18T06:20:58.797Z,82.32
2022-12-18T06:21:58.793Z,82.32
2022-12-18T06:22:58.774Z,82.32
2022-12-18T06:23:58.785Z,82.32
2022-12-18T06:24:58.764Z,82.32
2022-12-18T06:25:58.753Z,82.32
2022-12-18T06:26:58.745Z,82.21
2022-12-18T06:27:58.723Z,82.21
2022-12-18T06:28:58.711Z,82.21
2022-12-18T06:29:58.692Z,82.32
2022-12-18T06:30:58.709Z,82.21
2022-12-18T06:31:58.784Z,82.21
2022-12-18T06:32:58.652Z,82.21
2022-12-18T06:33:58.660Z,82.21
2022-12-18T06:34:58.629Z,82.21
2022-12-18T06:36:01.093Z,82.10
2022-12-18T06:36:58.613Z,82.10
2022-12-18T06:37:58.601Z,82.10
2022-12-18T06:38:58.608Z,82.10
2022-12-18T06:39:58.577Z,81.99
2022-12-18T06:40:58.567Z,81.99
2022-12-18T06:41:58.551Z,81.99
2022-12-18T06:42:58.554Z,81.99
2022-12-18T06:44:00.093Z,81.99
2022-12-18T06:44:58.506Z,81.88
2022-12-18T06:45:58.535Z,81.88
2022-12-18T06:46:58.486Z,81.88
2022-12-18T06:47:58.483Z,81.78
2022-12-18T06:48:58.475Z,81.78
2022-12-18T06:49:58.454Z,81.78
2022-12-18T06:50:58.456Z,81.82
2022-12-18T06:51:58.433Z,81.82
2022-12-18T06:52:58.414Z,81.71
2022-12-18T06:53:58.425Z,81.71
2022-12-18T06:54:58.392Z,81.71
2022-12-18T06:55:58.392Z,81.60
2022-12-18T06:56:58.372Z,81.71
2022-12-18T06:57:58.361Z,81.82
2022-12-18T06:58:58.360Z,81.82
2022-12-18T06:59:58.340Z,81.82
2022-12-18T07:00:58.355Z,81.82
2022-12-18T07:01:58.400Z,81.82
2022-12-18T07:02:58.320Z,81.92
2022-12-18T07:03:58.302Z,81.92
2022-12-18T07:04:58.269Z,81.92
2022-12-18T07:05:58.270Z,82.14
2022-12-18T07:06:58.248Z,82.24
2022-12-18T07:07:58.239Z,82.35
2022-12-18T07:08:58.238Z,82.57
2022-12-18T07:09:58.221Z,82.78
2022-12-18T07:10:58.205Z,83.31
2022-12-18T07:11:58.198Z,83.53
2022-12-18T07:12:58.186Z,83.53
2022-12-18T07:13:58.189Z,83.53
2022-12-18T07:14:58.157Z,83.53
2022-12-18T07:15:58.168Z,83.64
2022-12-18T07:16:58.233Z,83.64
2022-12-18T07:17:58.126Z,83.64
2022-12-18T07:18:58.124Z,83.74
2022-12-18T07:19:58.108Z,83.64
2022-12-18T07:20:58.085Z,83.64
2022-12-18T07:21:58.074Z,83.64
2022-12-18T07:22:58.067Z,83.53
2022-12-18T07:23:58.074Z,83.53
2022-12-18T07:24:58.039Z,83.53
2022-12-18T07:25:58.032Z,83.42
2022-12-18T07:26:58.014Z,83.31
2022-12-18T07:27:58.012Z,83.21
2022-12-18T07:28:58.003Z,83.21
2022-12-18T07:29:57.984Z,83.21
2022-12-18T07:30:57.967Z,83.10
2022-12-18T07:31:58.007Z,83.10
2022-12-18T07:32:57.940Z,83.00
2022-12-18T07:33:57.937Z,83.00
2022-12-18T07:34:57.940Z,82.89
2022-12-18T07:35:57.919Z,82.89
2022-12-18T07:36:57.901Z,82.78
2022-12-18T07:37:57.899Z,82.78
2022-12-18T07:38:57.876Z,82.78
2022-12-18T07:39:57.884Z,82.67
2022-12-18T07:40:57.856Z,82.57
2022-12-18T07:41:57.845Z,82.57
2022-12-18T07:42:57.827Z,82.57
2022-12-18T07:43:57.823Z,82.46
2022-12-18T07:44:57.815Z,82.46
2022-12-18T07:45:57.848Z,82.35
2022-12-18T07:46:57.788Z,82.35
2022-12-18T07:47:57.780Z,82.35
2022-12-18T07:48:57.760Z,82.35
2022-12-18T07:49:57.765Z,82.35
2022-12-18T07:50:57.735Z,82.35
2022-12-18T07:51:57.744Z,82.24
2022-12-18T07:52:57.715Z,82.24
2022-12-18T07:53:57.703Z,82.24
2022-12-18T07:54:57.700Z,82.14
2022-12-18T07:56:25.445Z,82.14
2022-12-18T07:56:58.661Z,82.14
2022-12-18T07:58:01.013Z,82.14
2022-12-18T07:58:57.650Z,82.14
2022-12-18T07:59:57.651Z,82.03
2022-12-18T08:00:57.652Z,82.03
2022-12-18T08:01:57.767Z,82.03
2022-12-18T08:02:57.690Z,82.03
2022-12-18T08:03:57.590Z,81.92
2022-12-18T08:04:57.589Z,81.92
2022-12-18T08:05:57.569Z,81.92
2022-12-18T08:06:57.548Z,81.92
2022-12-18T08:07:57.568Z,81.92
2022-12-18T08:08:57.530Z,82.03
2022-12-18T08:09:57.531Z,82.03
2022-12-18T08:10:57.501Z,82.14
2022-12-18T08:11:57.486Z,82.24
2022-12-18T08:13:01.498Z,82.35
2022-12-18T08:13:58.478Z,82.35
2022-12-18T08:14:57.466Z,82.35
2022-12-18T08:15:57.446Z,82.35
2022-12-18T08:16:57.481Z,82.46
2022-12-18T08:17:57.424Z,82.46
2022-12-18T08:18:57.407Z,82.46
2022-12-18T08:19:57.413Z,82.57
2022-12-18T08:20:57.393Z,82.67
2022-12-18T08:21:57.380Z,82.67
2022-12-18T08:22:57.362Z,82.67
2022-12-18T08:23:57.352Z,82.67
2022-12-18T08:24:57.346Z,82.67
2022-12-18T08:25:57.324Z,82.67
2022-12-18T08:27:21.209Z,82.78
2022-12-18T08:27:58.301Z,82.89
2022-12-18T08:28:57.291Z,82.89
2022-12-18T08:29:57.305Z,82.89
2022-12-18T08:30:57.333Z,83.00
2022-12-18T08:31:57.278Z,83.00
2022-12-18T08:32:57.238Z,82.96
2022-12-18T08:33:57.259Z,82.96
2022-12-18T08:34:57.236Z,83.06
2022-12-18T08:35:57.226Z,83.39
2022-12-18T08:36:57.193Z,83.49
2022-12-18T08:37:57.181Z,83.49
2022-12-18T08:38:57.160Z,83.49
2022-12-18T08:39:57.167Z,83.49
2022-12-18T08:40:57.140Z,83.49
2022-12-18T08:41:57.128Z,83.70
2022-12-18T08:42:57.149Z,83.81
2022-12-18T08:43:57.103Z,83.81
2022-12-18T08:44:57.105Z,84.13
2022-12-18T08:45:57.136Z,84.31
2022-12-18T08:46:57.066Z,84.31
2022-12-18T08:47:57.056Z,84.31
2022-12-18T08:48:57.040Z,84.31
2022-12-18T08:49:57.053Z,84.31
2022-12-18T08:50:57.016Z,84.31
2022-12-18T08:51:57.006Z,84.31
2022-12-18T08:52:56.993Z,84.31
2022-12-18T08:53:56.979Z,84.31
2022-12-18T08:54:56.982Z,84.31
2022-12-18T08:55:56.958Z,84.20
2022-12-18T08:56:56.941Z,84.31
2022-12-18T08:57:56.931Z,84.31
2022-12-18T08:58:56.920Z,84.31
2022-12-18T08:59:56.921Z,84.31
2022-12-18T09:00:56.918Z,84.27
2022-12-18T09:01:56.992Z,84.27
2022-12-18T09:02:56.997Z,84.27
2022-12-18T09:03:56.862Z,84.27
2022-12-18T09:04:57.710Z,84.27
2022-12-18T09:05:56.838Z,84.48
2022-12-18T09:06:56.847Z,84.59
2022-12-18T09:07:56.810Z,84.70
2022-12-18T09:08:56.798Z,84.70
2022-12-18T09:09:56.808Z,84.70
2022-12-18T09:10:56.767Z,84.77
2022-12-18T09:11:56.766Z,84.88
2022-12-18T09:12:56.756Z,84.88
2022-12-18T09:13:56.735Z,84.77
2022-12-18T09:14:56.720Z,84.77
2022-12-18T09:15:56.728Z,84.88
2022-12-18T09:16:56.787Z,84.94
2022-12-18T09:17:56.977Z,84.94
2022-12-18T09:18:56.687Z,84.94
2022-12-18T09:19:56.674Z,85.05
2022-12-18T09:20:56.663Z,85.16
2022-12-18T09:21:56.654Z,85.27
2022-12-18T09:22:56.690Z,85.22
2022-12-18T09:23:56.612Z,85.33
2022-12-18T09:24:56.601Z,85.44
2022-12-18T09:25:56.604Z,85.65
2022-12-18T09:26:58.059Z,85.86
2022-12-18T09:27:56.572Z,86.19
2022-12-18T09:28:56.552Z,86.40
2022-12-18T09:29:56.543Z,86.51
2022-12-18T09:30:56.582Z,86.61
2022-12-18T09:31:56.518Z,86.51
2022-12-18T09:32:56.500Z,86.47
2022-12-18T09:33:56.496Z,86.57
2022-12-18T09:34:56.478Z,86.57
2022-12-18T09:35:56.498Z,86.68
2022-12-18T09:36:56.449Z,86.68
2022-12-18T09:37:56.448Z,86.79
2022-12-18T09:38:56.427Z,86.79
2022-12-18T09:39:56.419Z,86.90
2022-12-18T09:40:56.416Z,87.07
2022-12-18T09:41:56.396Z,87.28
2022-12-18T09:42:56.378Z,87.38
2022-12-18T09:43:56.375Z,87.38
2022-12-18T09:44:56.407Z,87.28
2022-12-18T09:45:56.391Z,87.28
2022-12-18T09:46:56.335Z,87.46
2022-12-18T09:47:56.327Z,87.56
2022-12-18T09:48:56.304Z,87.66
2022-12-18T09:49:56.293Z,87.77
2022-12-18T09:50:56.301Z,87.77
2022-12-18T09:51:56.273Z,87.77
2022-12-18T09:52:56.253Z,87.99
2022-12-18T09:53:56.261Z,88.06
2022-12-18T09:54:56.233Z,88.16
2022-12-18T09:55:56.240Z,88.37
2022-12-18T09:56:56.202Z,88.48
2022-12-18T09:57:56.202Z,88.59
2022-12-18T09:58:56.310Z,88.69
2022-12-18T09:59:56.182Z,88.69
2022-12-18T10:00:56.169Z,88.80
2022-12-18T10:01:56.239Z,88.80
2022-12-18T10:02:56.220Z,88.76
2022-12-18T10:03:56.196Z,88.76
2022-12-18T10:04:56.108Z,88.87
2022-12-18T10:05:56.117Z,88.87
2022-12-18T10:06:56.089Z,88.97
2022-12-18T10:07:56.075Z,88.97
2022-12-18T10:08:56.058Z,88.97
2022-12-18T10:09:56.061Z,88.82
2022-12-18T10:10:56.057Z,88.82
2022-12-18T10:11:56.021Z,88.82
2022-12-18T10:13:00.969Z,88.82
2022-12-18T10:13:57.002Z,88.82
2022-12-18T10:14:55.988Z,88.93
2022-12-18T10:15:56.015Z,89.15
2022-12-18T10:16:55.962Z,89.21
2022-12-18T10:17:55.946Z,89.21
2022-12-18T10:18:55.942Z,89.21
2022-12-18T10:19:55.922Z,89.21
2022-12-18T10:20:55.924Z,89.21
2022-12-18T10:21:55.894Z,89.21
2022-12-18T10:22:55.885Z,89.17
2022-12-18T10:23:55.873Z,89.17
2022-12-18T10:24:55.866Z,89.28
2022-12-18T10:25:55.870Z,89.28
2022-12-18T10:26:55.833Z,89.39
2022-12-18T10:27:55.820Z,89.34
2022-12-18T10:28:58.534Z,89.34
2022-12-18T10:29:56.807Z,89.45
2022-12-18T10:30:55.835Z,89.56
2022-12-18T10:31:55.800Z,89.56
2022-12-18T10:32:55.759Z,89.62
2022-12-18T10:33:55.742Z,89.73
2022-12-18T10:35:00.117Z,89.84
2022-12-18T10:35:56.738Z,89.94
2022-12-18T10:36:55.709Z,90.05
2022-12-18T10:37:55.723Z,90.11
2022-12-18T10:38:55.679Z,90.33
2022-12-18T10:39:55.669Z,90.54
2022-12-18T10:40:55.675Z,90.64
2022-12-18T10:41:55.647Z,90.81
2022-12-18T10:42:55.638Z,90.81
2022-12-18T10:43:55.618Z,90.81
2022-12-18T10:44:55.635Z,90.81
2022-12-18T10:45:55.667Z,90.92
2022-12-18T10:46:55.617Z,91.03
2022-12-18T10:47:55.566Z,90.99
2022-12-18T10:48:55.566Z,90.99
2022-12-18T10:49:55.543Z,90.99
2022-12-18T10:51:13.016Z,90.99
2022-12-18T10:51:56.543Z,90.99
2022-12-18T10:52:55.511Z,90.99
2022-12-18T10:53:55.485Z,91.09
2022-12-18T10:54:55.479Z,91.16
2022-12-18T10:55:55.484Z,91.16
2022-12-18T10:56:55.462Z,91.27
2022-12-18T10:57:55.476Z,91.37
2022-12-18T10:58:55.432Z,91.37
2022-12-18T10:59:55.412Z,91.33
2022-12-18T11:00:55.434Z,91.33
2022-12-18T11:01:55.510Z,91.22
2022-12-18T11:02:55.636Z,91.22
2022-12-18T11:04:01.605Z,91.22
2022-12-18T11:04:56.357Z,91.22
2022-12-18T11:05:55.352Z,91.29
2022-12-18T11:06:55.331Z,91.29
2022-12-18T11:07:55.311Z,91.29
2022-12-18T11:08:55.312Z,91.29
2022-12-18T11:09:55.290Z,91.29
2022-12-18T11:10:55.288Z,91.29
2022-12-18T11:12:02.767Z,91.29
2022-12-18T11:12:55.256Z,91.29
2022-12-18T11:14:02.740Z,91.29
2022-12-18T11:15:02.731Z,91.25
2022-12-18T11:15:55.254Z,91.25
2022-12-18T11:17:24.430Z,91.25
2022-12-18T11:17:56.189Z,91.25
2022-12-18T11:18:55.179Z,91.25
2022-12-18T11:19:55.168Z,91.25
2022-12-18T11:20:58.537Z,91.25
2022-12-18T11:21:55.156Z,91.20
2022-12-18T11:22:55.146Z,91.20
2022-12-18T11:23:55.177Z,91.20
2022-12-18T11:25:29.677Z,91.20
2022-12-18T11:25:56.107Z,91.20
2022-12-18T11:26:59.668Z,91.16
2022-12-18T11:27:56.065Z,91.06
2022-12-18T11:28:55.057Z,91.06
2022-12-18T11:29:55.057Z,91.16
2022-12-18T11:30:55.074Z,91.16
2022-12-18T11:31:55.027Z,91.13
2022-12-18T11:32:55.007Z,91.13
2022-12-18T11:34:26.792Z,91.23
2022-12-18T11:34:59.012Z,91.23
2022-12-18T11:35:54.963Z,91.33
2022-12-18T11:36:54.973Z,91.33
2022-12-18T11:37:54.946Z,91.30
2022-12-18T11:38:54.931Z,91.30
2022-12-18T11:39:54.913Z,91.30
2022-12-18T11:40:54.911Z,91.30
2022-12-18T11:41:54.905Z,91.30
2022-12-18T11:42:54.893Z,91.30
2022-12-18T11:43:54.876Z,91.30
2022-12-18T11:44:54.854Z,91.30
2022-12-18T11:45:54.844Z,91.25
2022-12-18T11:46:54.928Z,91.25
2022-12-18T11:47:54.820Z,91.25
2022-12-18T11:48:54.832Z,91.25
2022-12-18T11:49:54.787Z,91.25
2022-12-18T11:50:54.794Z,91.25
2022-12-18T11:51:54.790Z,91.31
2022-12-18T11:52:59.243Z,91.31
2022-12-18T11:53:55.741Z,91.42
2022-12-18T11:54:54.750Z,91.42
2022-12-18T11:55:54.720Z,91.42
2022-12-18T11:56:54.760Z,91.53
2022-12-18T11:57:54.705Z,91.49
2022-12-18T11:58:54.720Z,91.38
2022-12-18T11:59:54.666Z,91.38
2022-12-18T12:00:54.653Z,91.38
2022-12-18T12:01:54.733Z,91.34
2022-12-18T12:02:54.655Z,91.34
2022-12-18T12:03:54.649Z,91.44
2022-12-18T12:04:54.601Z,91.44
2022-12-18T12:05:54.596Z,91.55
2022-12-18T12:06:58.644Z,91.41
2022-12-18T12:07:55.565Z,91.41
2022-12-18T12:08:54.598Z,91.41
2022-12-18T12:09:54.533Z,91.26
2022-12-18T12:10:54.525Z,91.26
2022-12-18T12:11:54.518Z,91.22
2022-12-18T12:12:54.505Z,91.22
2022-12-18T12:13:54.486Z,91.22
2022-12-18T12:14:54.482Z,91.17
2022-12-18T12:15:54.491Z,91.17
2022-12-18T12:16:54.462Z,91.24
2022-12-18T12:17:54.424Z,91.24
2022-12-18T12:18:54.425Z,91.24
2022-12-18T12:19:54.412Z,91.20
2022-12-18T12:20:54.395Z,91.20
2022-12-18T12:21:54.393Z,91.05
2022-12-18T12:22:54.363Z,91.05
2022-12-18T12:23:54.353Z,90.94
2022-12-18T12:24:54.342Z,90.91
2022-12-18T12:25:54.332Z,90.80
2022-12-18T12:26:54.341Z,90.80
2022-12-18T12:27:54.312Z,90.66
2022-12-18T12:28:54.292Z,90.55
2022-12-18T12:29:54.273Z,90.44
2022-12-18T12:30:54.286Z,90.44
2022-12-18T12:31:54.323Z,90.34
2022-12-18T12:32:54.248Z,90.30
2022-12-18T12:33:54.220Z,90.19
2022-12-18T12:34:59.586Z,90.09
2022-12-18T12:35:55.193Z,90.09
2022-12-18T12:36:54.211Z,89.94
2022-12-18T12:37:54.170Z,89.94
2022-12-18T12:38:54.171Z,89.84
2022-12-18T12:39:54.152Z,89.84
2022-12-18T12:41:02.128Z,89.73
2022-12-18T12:41:55.138Z,89.73
2022-12-18T12:42:54.117Z,89.59
2022-12-18T12:43:54.510Z,89.59
2022-12-18T12:44:56.337Z,89.48
2022-12-18T12:45:54.134Z,89.48
2022-12-18T12:46:54.078Z,89.37
2022-12-18T12:47:54.038Z,89.37
2022-12-18T12:48:54.034Z,89.27
2022-12-18T12:49:54.017Z,89.27
2022-12-18T12:50:54.007Z,89.17
2022-12-18T12:51:54.009Z,89.17
2022-12-18T12:52:53.995Z,89.06